AirNav   Everest Fuels
 
 596 users online  

6MN6 Goose Lake Seaplane Base
Waconia, Minnesota, USA

GOING TO WACONIA?


FAA INFORMATION EFFECTIVE 27 FEBRUARY 2020

Location

FAA Identifier: 6MN6
Lat/Long: 44-53-15.0690N 093-50-31.4130W
44-53.251150N 093-50.523550W
44.8875192,-93.8420592
(estimated)
Elevation: 967 ft. / 295 m (estimated)
Variation: 03E (1995)
From city: 4 miles NW of WACONIA, MN
Time zone: UTC -6 (UTC -5 during Daylight Saving Time)
Zip code: 55360

Seaplane Base Operations

Seaplane Base use: Private use. Permission required prior to landing
Activation date: 08/1999
Control tower: no
ARTCC: MINNEAPOLIS CENTER
FSS: PRINCETON FLIGHT SERVICE STATION
Attendance: UNATNDD
Wind indicator: yes
Segmented circle: no

Seaplane Base Communications

WX AWOS-3 at GYL (13 nm SW): 119.625 (320-864-5830)
WX AWOS-3 at CFE (16 nm N): 120.45 (763-684-0762)
WX ASOS at FCM (17 nm E): 124.9 (952-941-4156)

Nearby radio navigation aids

VOR radial/distance  VOR name  Freq  Var
FCMr281/17.4FLYING CLOUD VOR/DME117.7001E
GEPr226/25.2GOPHER VORTAC117.3006E
MSPr267/25.7MINNEAPOLIS VOR/DME115.3002E
DWNr108/28.6DARWIN VORTAC109.0007E
FGTr293/32.1FARMINGTON VORTAC115.7006E

 
NDB name  Hdg/Dist  Freq  Var  ID
GLENCOE051/12.940703EGYL --. -.-- .-..
HOPEY268/38.340003EPPI .--. .--. ..

Seaplane Base Services

Runway Information

Runway 1W/19W

Dimensions: 5000 x 200 ft. / 1524 x 61 m
Surface: water
RUNWAY 1W  RUNWAY 19W
Traffic pattern: leftleft

Runway 12W/30W

Dimensions: 5000 x 200 ft. / 1524 x 61 m
Surface: water
RUNWAY 12W  RUNWAY 30W
Traffic pattern: leftleft

Seaplane Base Ownership and Management from official FAA records

Ownership: Privately-owned
Owner: MIKE SORENSON
25648 200TH ST
BELLE PLAINE, MN 56011
Phone 612-873-9281
Manager: MIKE SORENSON
25648 200TH ST
BELLE PLAINE, MN 56011
Phone 612-873-4281

Seaplane Base Operational Statistics

Aircraft based on the field: 1
Single engine airplanes: 1
    

Additional Remarks

FOR CD CTC MINNEAPOLIS ARTCC AT 651-463-5588.

Instrument Procedures

There are no published instrument procedures at 6MN6.

Some nearby airports with instrument procedures:

KGYL - Glencoe Municipal Airport (13 nm SW)
KCFE - Buffalo Municipal Airport (16 nm N)
KFCM - Flying Cloud Airport (17 nm E)
KMGG - Maple Lake Municipal Airport-Bill Mavencamp Sr Field (22 nm N)
KHCD - Hutchinson Municipal Airport-Butler Field (23 nm W)
 
Loc | Ops | Rwys | IFR | FBO | Links
Com | Nav | Svcs | Stats | Notes
Area around 6MN6 (Goose Lake Seaplane Base)
 
Road maps at: MapQuest Bing Google
 
Aerial photo
No photo
 
Sectional chart

 
Airport distance calculator
Flying to Goose Lake Seaplane Base? Find the distance to fly.

From to 6MN6

Sunrise and sunset
Times for 29-Feb-2020
 Local
(UTC-6)
 Zulu
(UTC)
Morning civil twilight06:2512:25
Sunrise06:5412:54
Sunset18:0100:01
Evening civil twilight18:3100:31

Current date and time
Zulu (UTC)  29-Feb-2020 06:25:07
Local (UTC-6)  29-Feb-2020 00:25:07
 
METAR
KGYL 
13nm SW 
290459Z AUTO 00000KT 7SM CLR M14/M16 A3017 RMK AO2
KCFE 
16nm N 
290555Z 10SM CLR M10/M13 A3017 RMK AO2 T11041128 11055 21113 410351113
KFCM 
16nm E 
290553Z AUTO 00000KT 10SM CLR M09/M13 A3016 RMK AO2 SLP230 T10891128 11050 21100 410331100 58006
KMGG 
22nm N 
290555Z AUTO 00000KT 10SM M11/M12 A3016 RMK AO2 T11081122 11053 21116
KHCD 
22nm W 
290555Z AUTO 00000KT 10SM CLR M13/M14 A3016 RMK AO2 T11311140 11066 21135 410421135
KMIC 
23nm NE 
290553Z AUTO 23004KT 10SM CLR M09/M14 A3016 RMK AO2 SLP230 T10891139 11050 21094 410331100 56004
KMSP 
26nm E 
290553Z 00000KT 10SM CLR M08/M13 A3018 RMK AO2 SLP235 4/004 T10781128 11044 21078 410221083 56003
TAF
NOTAMs
Click for the latest NOTAMs
NOTAMs are issued by the DoD/FAA and will open in a separate window not controlled by AirNav.

 

 
 

Would you like to see your business listed on this page?

 If your business provides an interesting product or service to pilots, flight crews, aircraft, or users of the Goose Lake Seaplane Base, you should consider listing it here.  To start the listing process, click on the button below
 
Add a business
 

Other Pages about Goose Lake Seaplane Base

Update a link
 
Copyright © AirNav, LLC. All rights reserved. Privacy Policy  Contact